sensor_id;sensor_type;location;lat;lon;timestamp;pressure;altitude;pressure_sealevel;temperature;humidity
50364;BME280;36272;59.400;17.982;2023-03-05T00:02:41;100088.41;;;-0.38;52.46
50364;BME280;36272;59.400;17.982;2023-03-05T00:07:42;100088.75;;;-0.41;52.78
50364;BME280;36272;59.400;17.982;2023-03-05T00:12:44;100091.69;;;-0.44;52.50
50364;BME280;36272;59.400;17.982;2023-03-05T00:17:51;100083.16;;;-0.46;52.67
50364;BME280;36272;59.400;17.982;2023-03-05T00:22:53;100092.19;;;-0.49;52.88
50364;BME280;36272;59.400;17.982;2023-03-05T00:27:54;100085.97;;;-0.56;53.14
50364;BME280;36272;59.400;17.982;2023-03-05T00:32:59;100074.63;;;-0.56;53.23
50364;BME280;36272;59.400;17.982;2023-03-05T00:38:07;100079.88;;;-0.56;52.95
50364;BME280;36272;59.400;17.982;2023-03-05T00:43:11;100074.94;;;-0.60;53.04
50364;BME280;36272;59.400;17.982;2023-03-05T00:48:13;100071.97;;;-0.65;53.15
50364;BME280;36272;59.400;17.982;2023-03-05T00:53:15;100083.97;;;-0.70;53.48
50364;BME280;36272;59.400;17.982;2023-03-05T00:58:21;100069.38;;;-0.73;53.45
50364;BME280;36272;59.400;17.982;2023-03-05T01:03:23;100063.59;;;-0.77;53.43
50364;BME280;36272;59.400;17.982;2023-03-05T01:08:26;100066.06;;;-0.83;53.66
50364;BME280;36272;59.400;17.982;2023-03-05T01:13:28;100063.13;;;-0.88;53.67
50364;BME280;36272;59.400;17.982;2023-03-05T01:18:36;100066.06;;;-0.92;53.93
50364;BME280;36272;59.400;17.982;2023-03-05T01:23:38;100062.78;;;-0.94;53.75
50364;BME280;36272;59.400;17.982;2023-03-05T01:28:45;100052.59;;;-0.97;53.68
50364;BME280;36272;59.400;17.982;2023-03-05T01:33:47;100048.50;;;-0.99;53.75
50364;BME280;36272;59.400;17.982;2023-03-05T01:39:04;100043.41;;;-1.01;53.98
50364;BME280;36272;59.400;17.982;2023-03-05T01:44:05;100044.03;;;-1.07;54.34
50364;BME280;36272;59.400;17.982;2023-03-05T01:49:23;100036.50;;;-1.10;54.55
50364;BME280;36272;59.400;17.982;2023-03-05T01:54:28;100032.25;;;-1.03;54.21
50364;BME280;36272;59.400;17.982;2023-03-05T01:59:31;100028.31;;;-1.15;54.15
50364;BME280;36272;59.400;17.982;2023-03-05T02:04:40;100023.69;;;-1.22;54.43
50364;BME280;36272;59.400;17.982;2023-03-05T02:09:44;100045.03;;;-1.25;54.70
50364;BME280;36272;59.400;17.982;2023-03-05T02:14:48;100025.00;;;-1.26;54.57
50364;BME280;36272;59.400;17.982;2023-03-05T02:20:12;100023.19;;;-1.25;54.76
50364;BME280;36272;59.400;17.982;2023-03-05T02:25:39;100021.19;;;-1.31;54.72
50364;BME280;36272;59.400;17.982;2023-03-05T02:30:40;100015.66;;;-1.37;55.05
50364;BME280;36272;59.400;17.982;2023-03-05T02:35:42;100015.13;;;-1.40;55.36
50364;BME280;36272;59.400;17.982;2023-03-05T02:40:49;100017.09;;;-1.42;55.15
50364;BME280;36272;59.400;17.982;2023-03-05T02:45:51;100010.06;;;-1.42;55.13
50364;BME280;36272;59.400;17.982;2023-03-05T02:50:54;100005.28;;;-1.46;55.22
50364;BME280;36272;59.400;17.982;2023-03-05T02:55:56;100004.47;;;-1.47;55.28
50364;BME280;36272;59.400;17.982;2023-03-05T03:00:58;100004.59;;;-1.48;55.44
50364;BME280;36272;59.400;17.982;2023-03-05T03:06:02;99998.69;;;-1.51;55.60
50364;BME280;36272;59.400;17.982;2023-03-05T03:11:06;99988.88;;;-1.57;55.66
50364;BME280;36272;59.400;17.982;2023-03-05T03:16:10;99981.16;;;-1.58;55.77
50364;BME280;36272;59.400;17.982;2023-03-05T03:21:19;99975.91;;;-1.58;55.76
50364;BME280;36272;59.400;17.982;2023-03-05T03:26:23;99978.84;;;-1.61;56.00
50364;BME280;36272;59.400;17.982;2023-03-05T03:31:27;99970.31;;;-1.63;55.75
50364;BME280;36272;59.400;17.982;2023-03-05T03:36:28;99968.00;;;-1.67;55.77
50364;BME280;36272;59.400;17.982;2023-03-05T03:41:31;99964.22;;;-1.72;55.93
50364;BME280;36272;59.400;17.982;2023-03-05T03:46:33;99963.41;;;-1.73;55.75
50364;BME280;36272;59.400;17.982;2023-03-05T03:51:40;99960.09;;;-1.75;56.11
50364;BME280;36272;59.400;17.982;2023-03-05T03:56:42;99958.81;;;-1.79;56.19
50364;BME280;36272;59.400;17.982;2023-03-05T04:01:53;99952.06;;;-1.82;56.37
50364;BME280;36272;59.400;17.982;2023-03-05T04:06:55;99954.03;;;-1.84;56.22
50364;BME280;36272;59.400;17.982;2023-03-05T04:11:57;99958.63;;;-1.86;56.43
50364;BME280;36272;59.400;17.982;2023-03-05T04:16:59;99944.84;;;-1.88;56.44
50364;BME280;36272;59.400;17.982;2023-03-05T04:22:01;99943.19;;;-1.89;56.44
50364;BME280;36272;59.400;17.982;2023-03-05T04:27:03;99946.97;;;-1.91;56.62
50364;BME280;36272;59.400;17.982;2023-03-05T04:32:05;99934.19;;;-1.95;56.69
50364;BME280;36272;59.400;17.982;2023-03-05T04:37:07;99940.53;;;-1.97;56.86
50364;BME280;36272;59.400;17.982;2023-03-05T04:42:08;99929.25;;;-1.98;56.83
50364;BME280;36272;59.400;17.982;2023-03-05T04:47:11;99918.09;;;-2.00;57.11
50364;BME280;36272;59.400;17.982;2023-03-05T04:52:13;99921.56;;;-1.99;57.03
50364;BME280;36272;59.400;17.982;2023-03-05T04:57:15;99918.28;;;-2.01;57.03
50364;BME280;36272;59.400;17.982;2023-03-05T05:02:17;99912.38;;;-2.03;57.30
50364;BME280;36272;59.400;17.982;2023-03-05T05:07:19;99906.47;;;-2.05;57.22
50364;BME280;36272;59.400;17.982;2023-03-05T05:12:21;99910.22;;;-2.08;57.46
50364;BME280;36272;59.400;17.982;2023-03-05T05:17:23;99905.94;;;-2.09;57.43
50364;BME280;36272;59.400;17.982;2023-03-05T05:22:27;99896.63;;;-2.12;57.90
50364;BME280;36272;59.400;17.982;2023-03-05T05:27:31;99896.63;;;-2.12;58.12
50364;BME280;36272;59.400;17.982;2023-03-05T05:32:38;99894.13;;;-2.13;57.94
50364;BME280;36272;59.400;17.982;2023-03-05T05:38:17;99886.13;;;-2.12;57.71
50364;BME280;36272;59.400;17.982;2023-03-05T05:43:51;99889.88;;;-2.14;57.64
50364;BME280;36272;59.400;17.982;2023-03-05T05:48:53;99891.69;;;-2.15;58.01
50364;BME280;36272;59.400;17.982;2023-03-05T05:53:55;99894.13;;;-2.13;58.57
50364;BME280;36272;59.400;17.982;2023-03-05T05:59:01;99888.56;;;-2.10;57.98
50364;BME280;36272;59.400;17.982;2023-03-05T06:04:03;99878.75;;;-2.08;58.16
50364;BME280;36272;59.400;17.982;2023-03-05T06:09:05;99878.13;;;-2.02;57.82
50364;BME280;36272;59.400;17.982;2023-03-05T06:14:11;99881.56;;;-2.01;57.92
50364;BME280;36272;59.400;17.982;2023-03-05T06:19:20;99877.66;;;-1.89;58.23
50364;BME280;36272;59.400;17.982;2023-03-05T06:24:22;99878.81;;;-1.91;57.86
50364;BME280;36272;59.400;17.982;2023-03-05T06:29:24;99887.34;;;-1.89;58.32
50364;BME280;36272;59.400;17.982;2023-03-05T06:34:25;99886.38;;;-1.80;57.90
50364;BME280;36272;59.400;17.982;2023-03-05T06:39:30;99882.59;;;-1.77;58.05
50364;BME280;36272;59.400;17.982;2023-03-05T06:44:32;99871.47;;;-1.71;58.09
50364;BME280;36272;59.400;17.982;2023-03-05T06:49:58;99869.84;;;-1.64;58.17
50364;BME280;36272;59.400;17.982;2023-03-05T06:55:00;99877.06;;;-1.58;58.04
50364;BME280;36272;59.400;17.982;2023-03-05T07:00:17;99863.13;;;-1.50;58.38
50364;BME280;36272;59.400;17.982;2023-03-05T07:05:18;99875.59;;;-1.44;58.37
50364;BME280;36272;59.400;17.982;2023-03-05T07:10:20;99867.06;;;-1.38;58.25
50364;BME280;36272;59.400;17.982;2023-03-05T07:15:22;99866.88;;;-1.28;58.38
50364;BME280;36272;59.400;17.982;2023-03-05T07:20:28;99861.63;;;-1.20;58.30
50364;BME280;36272;59.400;17.982;2023-03-05T07:25:30;99861.25;;;-1.08;58.00
50364;BME280;36272;59.400;17.982;2023-03-05T07:30:33;99854.69;;;-0.96;57.91
50364;BME280;36272;59.400;17.982;2023-03-05T07:35:39;99851.84;;;-0.78;57.79
50364;BME280;36272;59.400;17.982;2023-03-05T07:40:40;99849.31;;;-0.63;57.66
50364;BME280;36272;59.400;17.982;2023-03-05T07:45:45;99837.81;;;-0.53;57.53
50364;BME280;36272;59.400;17.982;2023-03-05T07:50:47;99847.31;;;-0.44;57.43
50364;BME280;36272;59.400;17.982;2023-03-05T07:55:49;99854.31;;;-0.36;57.04
50364;BME280;36272;59.400;17.982;2023-03-05T08:00:51;99847.69;;;-0.24;57.20
50364;BME280;36272;59.400;17.982;2023-03-05T08:05:53;99849.75;;;-0.11;57.04
50364;BME280;36272;59.400;17.982;2023-03-05T08:11:04;99831.41;;;0.04;56.83
50364;BME280;36272;59.400;17.982;2023-03-05T08:16:09;99827.88;;;0.20;56.70
50364;BME280;36272;59.400;17.982;2023-03-05T08:21:16;99816.31;;;0.44;56.46
50364;BME280;36272;59.400;17.982;2023-03-05T08:26:29;99814.84;;;0.65;56.27
50364;BME280;36272;59.400;17.982;2023-03-05T08:31:34;99809.16;;;1.07;55.94
50364;BME280;36272;59.400;17.982;2023-03-05T08:36:39;99799.59;;;1.06;55.75
50364;BME280;36272;59.400;17.982;2023-03-05T08:41:46;99787.00;;;1.16;55.54
50364;BME280;36272;59.400;17.982;2023-03-05T08:46:48;99794.34;;;1.21;55.31
50364;BME280;36272;59.400;17.982;2023-03-05T08:51:49;99789.91;;;1.21;55.21
50364;BME280;36272;59.400;17.982;2023-03-05T08:56:54;99792.25;;;1.16;55.22
50364;BME280;36272;59.400;17.982;2023-03-05T09:02:01;99790.34;;;1.10;55.17
50364;BME280;36272;59.400;17.982;2023-03-05T09:07:10;99802.81;;;1.01;55.25
50364;BME280;36272;59.400;17.982;2023-03-05T09:12:13;99801.16;;;1.00;55.53
50364;BME280;36272;59.400;17.982;2023-03-05T09:17:17;99791.97;;;1.11;55.58
50364;BME280;36272;59.400;17.982;2023-03-05T09:22:35;99786.41;;;1.36;55.57
50364;BME280;36272;59.400;17.982;2023-03-05T09:27:37;99771.09;;;1.61;55.29
50364;BME280;36272;59.400;17.982;2023-03-05T09:32:40;99769.91;;;1.85;55.07
50364;BME280;36272;59.400;17.982;2023-03-05T09:37:41;99772.63;;;1.92;54.39
50364;BME280;36272;59.400;17.982;2023-03-05T09:43:13;99764.28;;;1.88;54.55
50364;BME280;36272;59.400;17.982;2023-03-05T09:48:24;99756.03;;;1.76;54.46
50364;BME280;36272;59.400;17.982;2023-03-05T09:53:36;99768.97;;;1.71;54.41
50364;BME280;36272;59.400;17.982;2023-03-05T09:59:03;99762.63;;;1.66;54.38
50364;BME280;36272;59.400;17.982;2023-03-05T10:04:21;99753.63;;;1.60;54.17
50364;BME280;36272;59.400;17.982;2023-03-05T10:09:40;99751.19;;;1.58;54.27
50364;BME280;36272;59.400;17.982;2023-03-05T10:14:44;99745.56;;;1.61;54.26
50364;BME280;36272;59.400;17.982;2023-03-05T10:36:11;99728.25;;;2.24;53.95
50364;BME280;36272;59.400;17.982;2023-03-05T10:46:31;99731.94;;;2.30;53.64
50364;BME280;36272;59.400;17.982;2023-03-05T10:52:07;99722.78;;;2.54;53.74
50364;BME280;36272;59.400;17.982;2023-03-05T10:57:19;99717.19;;;2.71;53.32
50364;BME280;36272;59.400;17.982;2023-03-05T11:02:24;99725.16;;;2.77;52.82
50364;BME280;36272;59.400;17.982;2023-03-05T11:07:32;99710.78;;;2.93;53.00
50364;BME280;36272;59.400;17.982;2023-03-05T11:12:37;99714.34;;;3.14;52.42
50364;BME280;36272;59.400;17.982;2023-03-05T11:17:44;99704.69;;;3.48;52.07
50364;BME280;36272;59.400;17.982;2023-03-05T11:28:18;99703.31;;;4.46;50.71
50364;BME280;36272;59.400;17.982;2023-03-05T11:33:21;99695.63;;;5.43;49.16
50364;BME280;36272;59.400;17.982;2023-03-05T11:38:25;99684.19;;;5.42;48.35
50364;BME280;36272;59.400;17.982;2023-03-05T11:43:30;99690.94;;;4.93;48.61
50364;BME280;36272;59.400;17.982;2023-03-05T11:48:36;99692.66;;;4.67;49.21
50364;BME280;36272;59.400;17.982;2023-03-05T11:54:02;99693.09;;;4.57;49.06
50364;BME280;36272;59.400;17.982;2023-03-05T11:59:15;99691.78;;;4.86;49.01
50364;BME280;36272;59.400;17.982;2023-03-05T12:04:19;99703.78;;;5.02;48.93
50364;BME280;36272;59.400;17.982;2023-03-05T12:09:48;99698.72;;;4.81;48.72
50364;BME280;36272;59.400;17.982;2023-03-05T12:54:34;99697.41;;;5.81;51.39
50364;BME280;36272;59.400;17.982;2023-03-05T12:59:58;99695.34;;;5.83;51.36
50364;BME280;36272;59.400;17.982;2023-03-05T13:05:32;99684.91;;;5.56;51.51
50364;BME280;36272;59.400;17.982;2023-03-05T13:16:24;99688.94;;;5.65;51.51
50364;BME280;36272;59.400;17.982;2023-03-05T13:21:40;99704.13;;;5.13;51.96
50364;BME280;36272;59.400;17.982;2023-03-05T13:26:45;99716.50;;;4.67;52.88
50364;BME280;36272;59.400;17.982;2023-03-05T13:31:53;99695.19;;;4.21;53.36
50364;BME280;36272;59.400;17.982;2023-03-05T13:36:59;99698.03;;;4.06;54.27
50364;BME280;36272;59.400;17.982;2023-03-05T13:42:13;99695.94;;;4.62;54.49
50364;BME280;36272;59.400;17.982;2023-03-05T13:47:24;99690.50;;;5.02;53.58
50364;BME280;36272;59.400;17.982;2023-03-05T13:57:48;99689.34;;;4.85;53.48
50364;BME280;36272;59.400;17.982;2023-03-05T14:03:07;99686.19;;;5.08;53.62
50364;BME280;36272;59.400;17.982;2023-03-05T14:08:40;99690.44;;;5.16;53.36
50364;BME280;36272;59.400;17.982;2023-03-05T14:13:43;99696.28;;;4.86;53.20
50364;BME280;36272;59.400;17.982;2023-03-05T14:19:02;99692.31;;;4.50;54.35
50364;BME280;36272;59.400;17.982;2023-03-05T14:24:23;99686.41;;;4.34;54.18
50364;BME280;36272;59.400;17.982;2023-03-05T14:29:30;99678.06;;;3.83;54.84
50364;BME280;36272;59.400;17.982;2023-03-05T14:34:33;99686.44;;;3.74;55.33
50364;BME280;36272;59.400;17.982;2023-03-05T14:39:44;99682.34;;;3.57;56.06
50364;BME280;36272;59.400;17.982;2023-03-05T14:44:53;99680.28;;;3.46;56.14
50364;BME280;36272;59.400;17.982;2023-03-05T14:49:58;99690.63;;;3.41;56.42
50364;BME280;36272;59.400;17.982;2023-03-05T14:55:00;99685.97;;;3.36;56.80
50364;BME280;36272;59.400;17.982;2023-03-05T15:00:03;99680.84;;;3.28;57.06
50364;BME280;36272;59.400;17.982;2023-03-05T15:05:14;99686.44;;;2.98;57.21
50364;BME280;36272;59.400;17.982;2023-03-05T15:10:23;99682.09;;;2.77;58.43
50364;BME280;36272;59.400;17.982;2023-03-05T15:15:25;99690.41;;;2.74;58.90
50364;BME280;36272;59.400;17.982;2023-03-05T15:20:28;99672.47;;;2.69;59.11
50364;BME280;36272;59.400;17.982;2023-03-05T15:25:30;99682.03;;;2.70;59.06
50364;BME280;36272;59.400;17.982;2023-03-05T15:30:36;99667.56;;;2.59;58.92
50364;BME280;36272;59.400;17.982;2023-03-05T15:35:41;99671.22;;;2.58;58.92
50364;BME280;36272;59.400;17.982;2023-03-05T15:40:47;99672.84;;;2.59;58.84
50364;BME280;36272;59.400;17.982;2023-03-05T15:45:48;99678.50;;;2.56;58.62
50364;BME280;36272;59.400;17.982;2023-03-05T15:50:50;99667.31;;;2.54;58.70
50364;BME280;36272;59.400;17.982;2023-03-05T15:55:55;99671.59;;;2.55;58.73
50364;BME280;36272;59.400;17.982;2023-03-05T16:00:57;99674.88;;;2.57;58.34
50364;BME280;36272;59.400;17.982;2023-03-05T16:06:09;99661.81;;;2.49;58.30
50364;BME280;36272;59.400;17.982;2023-03-05T16:11:17;99671.31;;;2.36;57.92
50364;BME280;36272;59.400;17.982;2023-03-05T16:16:19;99678.28;;;2.22;58.10
50364;BME280;36272;59.400;17.982;2023-03-05T16:21:22;99673.50;;;2.04;58.25
50364;BME280;36272;59.400;17.982;2023-03-05T16:26:45;99676.69;;;1.93;58.65
50364;BME280;36272;59.400;17.982;2023-03-05T16:32:02;99678.25;;;1.87;58.61
50364;BME280;36272;59.400;17.982;2023-03-05T16:37:04;99684.47;;;1.80;58.89
50364;BME280;36272;59.400;17.982;2023-03-05T16:42:07;99670.59;;;1.71;59.41
50364;BME280;36272;59.400;17.982;2023-03-05T16:47:10;99687.97;;;1.65;60.08
50364;BME280;36272;59.400;17.982;2023-03-05T16:52:21;99678.63;;;1.62;60.60
50364;BME280;36272;59.400;17.982;2023-03-05T16:57:23;99700.06;;;1.53;61.01
50364;BME280;36272;59.400;17.982;2023-03-05T17:02:30;99684.97;;;1.46;61.37
50364;BME280;36272;59.400;17.982;2023-03-05T17:07:41;99694.88;;;1.44;61.98
50364;BME280;36272;59.400;17.982;2023-03-05T17:12:49;99713.13;;;1.24;62.59
50364;BME280;36272;59.400;17.982;2023-03-05T17:17:53;99703.16;;;1.04;63.69
50364;BME280;36272;59.400;17.982;2023-03-05T17:22:57;99706.25;;;0.93;64.55
50364;BME280;36272;59.400;17.982;2023-03-05T17:27:59;99704.44;;;0.94;64.36
50364;BME280;36272;59.400;17.982;2023-03-05T17:33:00;99710.34;;;0.96;64.95
50364;BME280;36272;59.400;17.982;2023-03-05T17:38:07;99711.16;;;0.96;65.30
50364;BME280;36272;59.400;17.982;2023-03-05T17:43:11;99727.59;;;0.98;65.36
50364;BME280;36272;59.400;17.982;2023-03-05T17:48:13;99722.31;;;0.98;65.49
50364;BME280;36272;59.400;17.982;2023-03-05T17:53:15;99727.78;;;0.97;65.89
50364;BME280;36272;59.400;17.982;2023-03-05T17:58:18;99725.25;;;0.88;66.16
50364;BME280;36272;59.400;17.982;2023-03-05T18:03:19;99731.88;;;0.84;65.90
50364;BME280;36272;59.400;17.982;2023-03-05T18:08:21;99725.59;;;0.85;65.96
50364;BME280;36272;59.400;17.982;2023-03-05T18:13:23;99730.88;;;0.85;66.38
50364;BME280;36272;59.400;17.982;2023-03-05T18:18:30;99720.69;;;0.82;65.75
50364;BME280;36272;59.400;17.982;2023-03-05T18:23:32;99732.22;;;0.81;65.82
50364;BME280;36272;59.400;17.982;2023-03-05T18:28:33;99724.34;;;0.81;65.86
50364;BME280;36272;59.400;17.982;2023-03-05T18:33:35;99719.53;;;0.85;65.79
50364;BME280;36272;59.400;17.982;2023-03-05T18:38:38;99726.03;;;0.89;65.42
50364;BME280;36272;59.400;17.982;2023-03-05T18:43:40;99726.03;;;0.89;65.34
50364;BME280;36272;59.400;17.982;2023-03-05T18:48:47;99717.34;;;0.88;65.66
50364;BME280;36272;59.400;17.982;2023-03-05T18:53:48;99728.88;;;0.87;65.33
50364;BME280;36272;59.400;17.982;2023-03-05T18:58:52;99733.34;;;0.87;65.28
50364;BME280;36272;59.400;17.982;2023-03-05T19:03:54;99720.34;;;0.85;65.51
50364;BME280;36272;59.400;17.982;2023-03-05T19:08:55;99722.34;;;0.83;65.41
50364;BME280;36272;59.400;17.982;2023-03-05T19:13:59;99721.06;;;0.79;65.41
50364;BME280;36272;59.400;17.982;2023-03-05T19:19:05;99724.41;;;0.73;65.65
50364;BME280;36272;59.400;17.982;2023-03-05T19:24:07;99723.78;;;0.71;65.90
50364;BME280;36272;59.400;17.982;2023-03-05T19:29:09;99726.53;;;0.63;65.93
50364;BME280;36272;59.400;17.982;2023-03-05T19:34:13;99725.06;;;0.60;66.01
50364;BME280;36272;59.400;17.982;2023-03-05T19:39:15;99717.53;;;0.57;66.25
50364;BME280;36272;59.400;17.982;2023-03-05T19:44:25;99718.16;;;0.44;66.89
50364;BME280;36272;59.400;17.982;2023-03-05T19:49:27;99721.50;;;0.38;66.84
50364;BME280;36272;59.400;17.982;2023-03-05T19:54:29;99718.88;;;0.38;66.80
50364;BME280;36272;59.400;17.982;2023-03-05T19:59:30;99704.72;;;0.39;67.24
50364;BME280;36272;59.400;17.982;2023-03-05T20:04:32;99706.34;;;0.40;67.27
50364;BME280;36272;59.400;17.982;2023-03-05T20:09:34;99703.56;;;0.41;67.16
50364;BME280;36272;59.400;17.982;2023-03-05T20:14:35;99702.16;;;0.46;67.38
50364;BME280;36272;59.400;17.982;2023-03-05T20:19:40;99696.75;;;0.47;67.02
50364;BME280;36272;59.400;17.982;2023-03-05T20:24:45;99691.28;;;0.49;66.93
50364;BME280;36272;59.400;17.982;2023-03-05T20:29:50;99699.53;;;0.46;67.06
50364;BME280;36272;59.400;17.982;2023-03-05T20:34:51;99695.09;;;0.46;67.14
50364;BME280;36272;59.400;17.982;2023-03-05T20:39:55;99684.75;;;0.44;66.96
50364;BME280;36272;59.400;17.982;2023-03-05T20:44:57;99687.94;;;0.40;66.83
50364;BME280;36272;59.400;17.982;2023-03-05T20:50:04;99685.94;;;0.27;67.34
50364;BME280;36272;59.400;17.982;2023-03-05T20:55:08;99688.97;;;0.16;67.04
50364;BME280;36272;59.400;17.982;2023-03-05T21:00:11;99693.03;;;0.03;67.48
50364;BME280;36272;59.400;17.982;2023-03-05T21:05:13;99702.66;;;-0.04;67.42
50364;BME280;36272;59.400;17.982;2023-03-05T21:10:18;99688.38;;;-0.10;67.89
50364;BME280;36272;59.400;17.982;2023-03-05T21:15:23;99677.88;;;-0.10;67.76
50364;BME280;36272;59.400;17.982;2023-03-05T21:20:27;99684.13;;;-0.11;67.64
50364;BME280;36272;59.400;17.982;2023-03-05T21:25:31;99683.03;;;-0.17;67.58
50364;BME280;36272;59.400;17.982;2023-03-05T21:30:38;99676.88;;;-0.32;67.69
50364;BME280;36272;59.400;17.982;2023-03-05T21:35:41;99671.25;;;-0.44;67.67
50364;BME280;36272;59.400;17.982;2023-03-05T21:40:44;99666.38;;;-0.55;67.71
50364;BME280;36272;59.400;17.982;2023-03-05T21:45:48;99670.69;;;-0.63;67.65
50364;BME280;36272;59.400;17.982;2023-03-05T21:50:57;99674.19;;;-0.70;67.65
50364;BME280;36272;59.400;17.982;2023-03-05T21:56:01;99669.81;;;-0.78;67.69
50364;BME280;36272;59.400;17.982;2023-03-05T22:01:05;99668.69;;;-0.84;67.45
50364;BME280;36272;59.400;17.982;2023-03-05T22:06:08;99664.31;;;-0.92;67.77
50364;BME280;36272;59.400;17.982;2023-03-05T22:11:15;99657.13;;;-0.98;67.70
50364;BME280;36272;59.400;17.982;2023-03-05T22:16:25;99653.84;;;-1.00;67.73
50364;BME280;36272;59.400;17.982;2023-03-05T22:21:27;99654.69;;;-0.99;67.64
50364;BME280;36272;59.400;17.982;2023-03-05T22:26:34;99645.50;;;-1.03;67.58
50364;BME280;36272;59.400;17.982;2023-03-05T22:31:36;99653.88;;;-1.08;67.42
50364;BME280;36272;59.400;17.982;2023-03-05T22:36:38;99648.63;;;-1.08;67.51
50364;BME280;36272;59.400;17.982;2023-03-05T22:41:40;99643.44;;;-1.16;67.57
50364;BME280;36272;59.400;17.982;2023-03-05T22:46:44;99636.25;;;-1.23;67.31
50364;BME280;36272;59.400;17.982;2023-03-05T22:51:46;99633.78;;;-1.24;67.39
50364;BME280;36272;59.400;17.982;2023-03-05T22:56:47;99645.13;;;-1.32;67.58
50364;BME280;36272;59.400;17.982;2023-03-05T23:01:49;99646.66;;;-1.38;67.36
50364;BME280;36272;59.400;17.982;2023-03-05T23:06:51;99652.41;;;-1.51;67.57
50364;BME280;36272;59.400;17.982;2023-03-05T23:11:52;99638.03;;;-1.63;67.60
50364;BME280;36272;59.400;17.982;2023-03-05T23:16:54;99631.84;;;-1.70;67.49
50364;BME280;36272;59.400;17.982;2023-03-05T23:21:56;99632.69;;;-1.78;67.81
50364;BME280;36272;59.400;17.982;2023-03-05T23:26:58;99636.44;;;-1.89;67.69
50364;BME280;36272;59.400;17.982;2023-03-05T23:32:00;99631.22;;;-1.97;67.59
50364;BME280;36272;59.400;17.982;2023-03-05T23:37:01;99632.56;;;-2.01;67.33
50364;BME280;36272;59.400;17.982;2023-03-05T23:42:03;99622.88;;;-2.09;67.44
50364;BME280;36272;59.400;17.982;2023-03-05T23:47:05;99624.38;;;-2.15;67.45
50364;BME280;36272;59.400;17.982;2023-03-05T23:52:07;99621.75;;;-2.23;67.61
50364;BME280;36272;59.400;17.982;2023-03-05T23:57:08;99625.69;;;-2.27;67.50
